Latest Coastal Weather Observations for Gabo Island

IDT60701

Issued at 5:32 pm EST Wednesday 1 June 2016 (issued every 10 minutes, with the page automatically refreshed every 10 minutes)

About coastal observations | Map of coastal stations | Coastal observations for TAS | Marine services | Other Formats
Station Details ID: 084016 Name: GABO ISLAND LIGHTHOUSE Lat: -37.57 Lon: 149.92 Height: 15.2 m
Data from the previous 72 hours. | See also: Recent months at Gabo Island
Date/Time
EST
Temp

°C
Wind Pressure Rain
since 9am
mm
Weather Cloud Vis
km
Sea
Height
m
Swell
Dir
 
Speed
knots
Gust
knots
hPa Trend Height
m
Period
s
Dir
01/05:30pm 14.0 E 5 6 1028.5 - 0.0 - - - - - - -
01/05:00pm 14.0 E 7 9 1028.4 - 0.0 - - - - - - -
01/04:30pm 14.3 ESE 3 5 1028.3 - 0.0 - - - - - - -
01/04:00pm 14.3 SE 3 4 1028.3 - 0.0 - - - - - - -
01/03:30pm 14.3 SSW 4 5 1028.3 - 0.0 - - - - - - -
01/03:00pm 14.7 S 3 4 1028.3 - 0.0 Distant precip. Mostly cloudy 30 <0.5 1.0 - -
01/02:30pm 14.9 S 4 5 1028.3 - 0.0 - - - - - - -
01/02:00pm 14.9 S 4 5 1028.3 - 0.0 - - - - - - -
01/01:30pm 14.4 SSW 5 6 1028.5 - 0.0 - - - - - - -
01/01:00pm 14.3 WSW 6 7 1028.8 - 0.0 - - - - - - -
01/12:30pm 14.7 W 7 8 1029.1 - 0.0 - - - - - - -
01/12:00pm 14.7 W 7 9 1029.4 - 0.0 - - - - - - -
01/11:30am 13.2 WNW 8 10 1029.8 - 0.0 - - - - - - -
01/11:00am 13.5 WNW 8 9 1030.1 - 0.0 - - - - - - -
01/10:30am 13.7 WNW 7 9 1030.3 - 0.0 - - - - - - -
01/10:00am 12.7 WNW 9 10 1030.2 - 0.0 - - - - - - -
01/09:30am 12.5 WNW 11 13 1030.1 - 0.0 - - - - - - -
01/09:00am 12.4 WNW 8 10 1030.4 - 0.0 Distant precip. Partly cloudy 40 <0.5 1.0 - -
01/08:30am 10.4 WNW 8 9 1030.4 - 0.0 - - - - - - -
01/08:00am 10.3 WNW 9 9 1030.3 - 0.0 - - - - - - -
01/07:30am 10.3 WNW 8 10 1030.2 - 0.0 - - - - - - -
01/07:00am 10.6 WNW 8 9 1030.0 - 0.0 - - - - - - -
01/06:30am 10.5 NW 8 9 1029.8 - 0.0 - - - - - - -
01/06:00am 10.3 WNW 9 11 1029.7 - 0.0 - - - - - - -
01/05:30am 10.2 NW 9 11 1029.5 - 0.0 - - - - - - -
01/05:00am 10.3 NW 9 13 1029.4 - 0.0 - - - - - - -
01/04:30am 9.9 WNW 9 11 1029.4 - 0.0 - - - - - - -
01/04:00am 9.9 WNW 9 11 1029.4 - 0.0 - - - - - - -
01/03:30am 9.8 WNW 8 10 1029.3 - 0.0 - - - - - - -
01/03:00am 10.0 WNW 9 9 1029.5 - 0.0 Fine Mostly clear 40 1 1.0 - -
01/02:30am 10.0 WNW 8 9 1029.8 - 0.0 - - - - - - -
01/02:00am 10.5 WNW 8 10 1030.0 - 0.0 - - - - - - -
01/01:30am 10.5 WNW 8 9 1030.0 - 0.0 - - - - - - -
01/01:00am 10.2 WNW 9 10 1030.1 - 0.0 - - - - - - -
01/12:30am 10.2 WNW 9 10 1030.3 - 0.0 - - - - - - -
01/12:00am 10.4 WNW 9 10 1030.6 - 0.0 - - - - - - -
 
Date/Time
EST
Temp

°C
Wind Pressure Rain
since 9am
mm
Weather Cloud Vis
km
Sea
Height
m
Swell
Dir
 
Speed
knots
Gust
knots
hPa Trend Height
m
Period
s
Dir
31/11:30pm 10.3 WNW 8 9 1030.6 - 0.0 - - - - - - -
31/11:00pm 10.3 WNW 8 9 1030.7 - 0.0 - - - - - - -
31/10:30pm 11.2 WNW 7 8 1030.8 - 0.0 - - - - - - -
31/10:00pm 11.3 WNW 7 8 1030.9 - 0.0 - - - - - - -
31/09:30pm 11.1 WNW 7 8 1030.8 - 0.0 - - - - - - -
31/09:00pm 11.1 WNW 7 8 1031.0 - 0.0 Fine Partly cloudy 40 1 1.0 - -
31/08:30pm 12.8 SSE 4 5 1030.9 - 0.0 - - - - - - -
31/08:00pm 13.7 SSE 4 6 1030.8 - 0.0 - - - - - - -
31/07:30pm 14.1 ESE 6 8 1030.8 - 0.0 - - - - - - -
31/07:00pm 14.1 ESE 7 8 1030.7 - 0.0 - - - - - - -
31/06:30pm 14.2 SE 6 9 1030.6 - 0.0 - - - - - - -
31/06:00pm 14.3 SE 7 9 1030.5 - 0.0 - - - - - - -
31/05:30pm 14.3 SE 7 10 1030.3 - 0.0 - - - - - - -
31/05:00pm 14.4 SE 7 9 1030.2 - 0.0 - - - - - - -
31/04:30pm 14.7 SE 7 9 1030.1 - 0.0 - - - - - - -
31/04:00pm 15.2 SE 7 9 1030.1 - 0.0 - - - - - - -
31/03:30pm 15.1 SE 8 11 1030.1 - 0.0 - - - - - - -
31/03:00pm 15.1 SE 8 11 1030.1 - 0.0 Fine Partly cloudy 50 1 1.0 - -
31/02:30pm 15.4 SSE 10 13 1030.1 - 0.0 - - - - - - -
31/02:00pm 16.0 SSE 8 12 1030.0 - 0.0 - - - - - - -
31/01:30pm 15.4 SSE 9 11 1030.3 - 0.0 - - - - - - -
31/01:00pm 15.5 SSW 5 6 1030.4 - 0.0 - - - - - - -
31/12:30pm 14.7 SW 5 5 1030.5 - 0.0 - - - - - - -
31/12:00pm 14.9 SW 5 6 1030.9 - 0.0 - - - - - - -
31/11:30am 14.9 SW 5 7 1031.1 - 0.0 - - - - - - -
31/11:00am 14.5 WSW 6 7 1031.5 - 0.0 - - - - - - -
31/10:30am 14.3 W 6 7 1031.7 - 0.0 - - - - - - -
31/10:00am 14.0 WNW 8 9 1031.8 - 0.0 - - - - - - -
31/09:30am 13.2 WNW 8 9 1031.7 - 0.0 - - - - - - -
31/09:00am 12.9 WNW 7 9 1031.7 - 0.4 Fine Mostly clear 30 1 1.0 - -
31/08:30am 12.3 WNW 8 9 1031.4 - 0.4 - - - - - - -
31/08:00am 11.5 WNW 8 11 1031.1 - 0.4 - - - - - - -
31/07:30am 11.1 WNW 9 11 1030.8 - 0.4 - - - - - - -
31/07:00am 10.8 WNW 10 13 1030.6 - 0.4 - - - - - - -
31/06:30am 11.0 WNW 8 9 1030.3 - 0.4 - - - - - - -
31/06:00am 11.0 WNW 8 10 1030.2 - 0.4 - - - - - - -
31/05:30am 11.3 WNW 9 11 1029.9 - 0.4 - - - - - - -
31/05:00am 11.1 NW 8 11 1029.8 - 0.4 - - - - - - -
31/04:30am 11.2 WNW 9 11 1029.7 - 0.4 - - - - - - -
31/04:00am 11.2 WNW 9 11 1029.5 - 0.4 - - - - - - -
31/03:30am 11.1 WNW 10 12 1029.4 - 0.4 - - - - - - -
31/03:00am 11.0 WNW 10 12 1029.4 - 0.4 Fine Mostly clear 30 1 1.0 - -
31/02:30am 11.2 WNW 10 12 1029.4 - 0.4 - - - - - - -
31/02:00am 11.6 WNW 9 11 1029.5 - 0.4 - - - - - - -
31/01:30am 11.6 NW 8 11 1029.5 - 0.4 - - - - - - -
31/01:00am 11.6 WNW 8 9 1029.5 - 0.4 - - - - - - -
31/12:30am 11.7 NW 9 11 1029.5 - 0.4 - - - - - - -
31/12:00am 11.6 NW 8 10 1029.7 - 0.4 - - - - - - -
 
Date/Time
EST
Temp

°C
Wind Pressure Rain
since 9am
mm
Weather Cloud Vis
km
Sea
Height
m
Swell
Dir
 
Speed
knots
Gust
knots
hPa Trend Height
m
Period
s
Dir
30/11:30pm 11.4 WNW 9 11 1029.5 - 0.4 - - - - - - -
30/11:00pm 11.4 NW 9 12 1029.4 - 0.4 - - - - - - -
30/10:30pm 11.4 WNW 8 10 1029.4 - 0.4 - - - - - - -
30/10:00pm 11.5 WNW 8 10 1029.1 - 0.0 - - - - - - -
30/09:30pm 11.5 W 10 12 1029.0 - 0.0 - - - - - - -
30/09:00pm 11.4 W 10 12 1028.8 - 0.0 Fine Mostly clear 30 1 1.0 - -
30/08:30pm 11.8 W 12 14 1028.5 - 0.0 - - - - - - -
30/08:00pm 11.8 W 11 13 1028.4 - 0.0 - - - - - - -
30/07:30pm 11.9 W 11 14 1028.2 - 0.0 - - - - - - -
30/07:00pm 12.4 W 11 13 1028.0 - 0.0 - - - - - - -
30/06:30pm 12.7 W 10 12 1027.9 - 0.0 - - - - - - -
30/06:00pm 13.1 WSW 11 14 1027.6 - 0.0 - - - - - - -
30/05:30pm 13.3 SW 13 16 1027.2 - 0.0 - - - - - - -
30/05:00pm 13.5 SW 14 16 1026.9 - 0.0 - - - - - - -
30/04:30pm 13.4 SW 17 19 1026.4 - 0.0 - - - - - - -
30/04:00pm 13.6 SW 15 18 1026.1 - 0.0 - - - - - - -
30/03:30pm 13.9 SW 15 19 1026.0 - 0.0 - - - - - - -
30/03:00pm 13.8 SW 16 19 1025.7 - 0.0 Fine Partly cloudy 30 2 1.0 - -
30/02:30pm 13.9 SW 16 19 1025.6 - 0.0 - - - - - - -
30/02:00pm 13.9 SW 16 19 1025.4 - 0.0 - - - - - - -
30/01:30pm 14.2 WSW 14 18 1025.5 - 0.0 - - - - - - -
30/01:00pm 14.1 WSW 16 19 1025.5 - 0.0 - - - - - - -
30/12:30pm 14.1 WSW 16 19 1025.4 - 0.0 - - - - - - -
30/12:00pm 14.1 W 15 18 1025.5 - 0.0 - - - - - - -
30/11:30am 13.7 W 15 19 1025.8 - 0.0 - - - - - - -
30/11:00am 13.8 W 15 19 1025.8 - 0.0 - - - - - - -
30/10:30am 13.9 W 13 16 1026.1 - 0.0 - - - - - - -
30/10:00am 13.0 W 16 19 1025.9 - 0.0 - - - - - - -
30/09:30am 12.5 W 15 18 1025.5 - 0.0 - - - - - - -
30/09:00am 11.8 W 16 20 1025.2 - 11.8 Fine Partly cloudy 30 2 6.0 - -
30/08:30am 11.4 W 18 22 1024.8 - 11.8 - - - - - - -
30/08:00am 11.0 W 20 24 1024.4 - 11.8 - - - - - - -
30/07:30am 10.7 W 19 23 1024.2 - 11.8 - - - - - - -
30/07:00am 10.5 W 19 24 1023.8 - 11.8 - - - - - - -
30/06:30am 10.6 W 18 21 1023.5 - 11.8 - - - - - - -
30/06:00am 10.9 WSW 22 28 1023.0 - 11.8 - - - - - - -
30/05:30am 10.9 W 20 23 1022.7 - 11.8 - - - - - - -
30/05:00am 10.7 WSW 21 26 1022.3 - 11.8 - - - - - - -
30/04:30am 10.8 W 19 23 1021.9 - 11.8 - - - - - - -
30/04:00am 10.5 W 20 25 1021.7 - 11.8 - - - - - - -
30/03:30am 10.6 W 21 28 1021.4 - 11.8 - - - - - - -
30/03:00am 10.7 W 22 26 1021.3 - 11.4 Rain Cloudy 5 3 3.0 - -
30/02:30am 11.0 W 21 27 1020.9 - 11.2 - - - - - - -
30/02:00am 11.1 W 21 25 1020.8 - 11.2 - - - - - - -
30/01:30am 11.0 W 21 27 1020.5 - 11.2 - - - - - - -
30/01:00am 10.8 W 20 28 1020.4 - 11.2 - - - - - - -
30/12:30am 10.8 W 22 27 1020.2 - 11.0 - - - - - - -
30/12:00am 10.8 W 21 26 1020.0 - 11.0 - - - - - - -
 
Date/Time
EST
Temp

°C
Wind Pressure Rain
since 9am
mm
Weather Cloud Vis
km
Sea
Height
m
Swell
Dir
 
Speed
knots
Gust
knots
hPa Trend Height
m
Period
s
Dir
29/11:30pm 10.8 W 20 25 1020.2 - 11.0 - - - - - - -
29/11:00pm 10.8 W 20 25 1020.0 - 11.0 - - - - - - -
29/10:30pm 10.9 WSW 24 29 1019.8 - 10.8 - - - - - - -
29/10:00pm 11.0 WSW 22 27 1019.8 - 10.2 - - - - - - -
29/09:30pm 11.1 WSW 19 23 1020.0 - 9.4 - - - - - - -
29/09:00pm 11.2 WSW 21 25 1019.8 - 6.4 Rain Cloudy 2 3 3.0 - -
29/08:30pm 11.2 W 19 24 1019.2 - 4.2 - - - - - - -
29/08:00pm 11.2 WSW 19 23 1019.0 - 4.2 - - - - - - -
29/07:30pm 11.4 W 17 21 1018.5 - 3.0 - - - - - - -
29/07:00pm 11.1 W 20 29 1018.1 - 3.0 - - - - - - -
29/06:30pm 11.2 W 17 22 1018.0 - 2.6 - - - - - - -
29/06:00pm 11.3 WSW 18 23 1017.8 - 2.2 Rain - - - - - -

Other Formats:

Comma delimited format used in spreadsheet applications
http://www.bom.gov.au/fwo/IDT60701/IDT60701.94933.axf

JavaScript Object Notation format (JSON) in row-major order
http://www.bom.gov.au/fwo/IDT60701/IDT60701.94933.json